sensor_id;sensor_type;location;lat;lon;timestamp;pressure;altitude;pressure_sealevel;temperature;humidity
19112;BME280;9688;51.906;8.376;2023-11-19T00:00:40;100049.97;;;10.45;100.00
19112;BME280;9688;51.906;8.376;2023-11-19T00:03:25;100053.47;;;10.46;100.00
19112;BME280;9688;51.906;8.376;2023-11-19T00:06:11;100056.81;;;10.49;100.00
19112;BME280;9688;51.906;8.376;2023-11-19T00:08:57;100051.38;;;10.53;100.00
19112;BME280;9688;51.906;8.376;2023-11-19T00:11:44;100038.16;;;10.53;100.00
19112;BME280;9688;51.906;8.376;2023-11-19T00:14:31;100035.53;;;10.53;100.00
19112;BME280;9688;51.906;8.376;2023-11-19T00:17:17;100050.47;;;10.54;100.00
19112;BME280;9688;51.906;8.376;2023-11-19T00:20:04;100043.25;;;10.57;100.00
19112;BME280;9688;51.906;8.376;2023-11-19T00:22:50;100041.38;;;10.59;100.00
19112;BME280;9688;51.906;8.376;2023-11-19T00:25:36;100037.75;;;10.62;100.00
19112;BME280;9688;51.906;8.376;2023-11-19T00:28:23;100034.00;;;10.66;100.00
19112;BME280;9688;51.906;8.376;2023-11-19T00:31:10;100024.28;;;10.66;100.00
19112;BME280;9688;51.906;8.376;2023-11-19T00:33:56;100021.50;;;10.69;100.00
19112;BME280;9688;51.906;8.376;2023-11-19T00:36:42;100017.78;;;10.74;100.00
19112;BME280;9688;51.906;8.376;2023-11-19T00:39:29;100018.47;;;10.77;100.00
19112;BME280;9688;51.906;8.376;2023-11-19T00:42:15;100009.63;;;10.78;100.00
19112;BME280;9688;51.906;8.376;2023-11-19T00:45:00;100007.59;;;10.83;100.00
19112;BME280;9688;51.906;8.376;2023-11-19T00:47:48;100004.72;;;10.88;100.00
19112;BME280;9688;51.906;8.376;2023-11-19T00:50:34;100008.06;;;10.91;100.00
19112;BME280;9688;51.906;8.376;2023-11-19T00:53:20;99995.63;;;10.93;100.00
19112;BME280;9688;51.906;8.376;2023-11-19T00:56:06;100000.78;;;10.97;100.00
19112;BME280;9688;51.906;8.376;2023-11-19T00:58:52;99992.69;;;11.00;100.00
19112;BME280;9688;51.906;8.376;2023-11-19T01:01:38;99993.56;;;11.00;100.00
19112;BME280;9688;51.906;8.376;2023-11-19T01:04:25;99980.41;;;10.99;100.00
19112;BME280;9688;51.906;8.376;2023-11-19T01:07:10;99986.69;;;10.96;100.00
19112;BME280;9688;51.906;8.376;2023-11-19T01:09:57;99974.31;;;10.97;100.00
19112;BME280;9688;51.906;8.376;2023-11-19T01:12:43;99984.06;;;10.96;100.00
19112;BME280;9688;51.906;8.376;2023-11-19T01:15:29;99979.41;;;11.01;100.00
19112;BME280;9688;51.906;8.376;2023-11-19T01:18:14;99976.59;;;11.04;100.00
19112;BME280;9688;51.906;8.376;2023-11-19T01:21:03;99981.66;;;11.09;100.00
19112;BME280;9688;51.906;8.376;2023-11-19T01:23:49;99979.75;;;11.11;100.00
19112;BME280;9688;51.906;8.376;2023-11-19T01:26:35;99981.41;;;11.13;100.00
19112;BME280;9688;51.906;8.376;2023-11-19T01:29:21;99976.84;;;11.17;100.00
19112;BME280;9688;51.906;8.376;2023-11-19T01:32:07;99975.72;;;11.21;100.00
19112;BME280;9688;51.906;8.376;2023-11-19T01:34:52;99969.41;;;11.24;100.00
19112;BME280;9688;51.906;8.376;2023-11-19T01:37:40;99978.03;;;11.27;100.00
19112;BME280;9688;51.906;8.376;2023-11-19T01:40:25;99961.09;;;11.31;100.00
19112;BME280;9688;51.906;8.376;2023-11-19T01:43:11;99953.06;;;11.33;100.00
19112;BME280;9688;51.906;8.376;2023-11-19T01:45:58;99959.13;;;11.35;100.00
19112;BME280;9688;51.906;8.376;2023-11-19T01:48:45;99951.13;;;11.36;100.00
19112;BME280;9688;51.906;8.376;2023-11-19T01:51:31;99929.84;;;11.38;100.00
19112;BME280;9688;51.906;8.376;2023-11-19T01:54:18;99943.03;;;11.39;100.00
19112;BME280;9688;51.906;8.376;2023-11-19T01:57:04;99934.13;;;11.41;100.00
19112;BME280;9688;51.906;8.376;2023-11-19T01:59:51;99916.41;;;11.43;100.00
19112;BME280;9688;51.906;8.376;2023-11-19T02:02:38;99915.44;;;11.44;100.00
19112;BME280;9688;51.906;8.376;2023-11-19T02:05:24;99918.78;;;11.47;100.00
19112;BME280;9688;51.906;8.376;2023-11-19T02:08:11;99902.88;;;11.47;100.00
19112;BME280;9688;51.906;8.376;2023-11-19T02:10:59;99891.28;;;11.50;100.00
19112;BME280;9688;51.906;8.376;2023-11-19T02:13:46;99889.53;;;11.50;100.00
19112;BME280;9688;51.906;8.376;2023-11-19T02:16:32;99897.38;;;11.52;100.00
19112;BME280;9688;51.906;8.376;2023-11-19T02:19:19;99896.34;;;11.54;100.00
19112;BME280;9688;51.906;8.376;2023-11-19T02:22:04;99893.63;;;11.56;100.00
19112;BME280;9688;51.906;8.376;2023-11-19T02:24:56;99888.06;;;11.60;100.00
19112;BME280;9688;51.906;8.376;2023-11-19T02:27:52;99888.06;;;11.60;100.00
19112;BME280;9688;51.906;8.376;2023-11-19T02:30:40;99879.94;;;11.64;100.00
19112;BME280;9688;51.906;8.376;2023-11-19T02:33:26;99879.72;;;11.68;100.00
19112;BME280;9688;51.906;8.376;2023-11-19T02:36:12;99875.09;;;11.72;100.00
19112;BME280;9688;51.906;8.376;2023-11-19T02:38:57;99873.03;;;11.77;100.00
19112;BME280;9688;51.906;8.376;2023-11-19T02:41:44;99863.13;;;11.80;100.00
19112;BME280;9688;51.906;8.376;2023-11-19T02:44:31;99870.81;;;11.85;100.00
19112;BME280;9688;51.906;8.376;2023-11-19T02:47:18;99876.94;;;11.87;100.00
19112;BME280;9688;51.906;8.376;2023-11-19T02:50:06;99871.47;;;11.90;100.00
19112;BME280;9688;51.906;8.376;2023-11-19T02:52:58;99868.63;;;11.93;100.00
19112;BME280;9688;51.906;8.376;2023-11-19T02:55:44;99864.91;;;11.97;100.00
19112;BME280;9688;51.906;8.376;2023-11-19T02:58:34;99875.22;;;12.02;100.00
19112;BME280;9688;51.906;8.376;2023-11-19T03:01:24;99882.06;;;12.06;100.00
19112;BME280;9688;51.906;8.376;2023-11-19T03:04:14;99871.28;;;12.09;100.00
19112;BME280;9688;51.906;8.376;2023-11-19T03:07:01;99856.16;;;12.11;100.00
19112;BME280;9688;51.906;8.376;2023-11-19T03:09:47;99866.41;;;12.17;100.00
19112;BME280;9688;51.906;8.376;2023-11-19T03:12:34;99852.88;;;12.22;100.00
19112;BME280;9688;51.906;8.376;2023-11-19T03:15:19;99839.38;;;12.26;100.00
19112;BME280;9688;51.906;8.376;2023-11-19T03:18:07;99835.44;;;12.34;100.00
19112;BME280;9688;51.906;8.376;2023-11-19T03:20:53;99835.13;;;12.38;100.00
19112;BME280;9688;51.906;8.376;2023-11-19T03:23:38;99814.53;;;12.43;100.00
19112;BME280;9688;51.906;8.376;2023-11-19T03:26:24;99823.91;;;12.49;100.00
19112;BME280;9688;51.906;8.376;2023-11-19T03:29:10;99835.22;;;12.53;100.00
19112;BME280;9688;51.906;8.376;2023-11-19T03:31:56;99832.25;;;12.57;100.00
19112;BME280;9688;51.906;8.376;2023-11-19T03:34:46;99834.66;;;12.62;100.00
19112;BME280;9688;51.906;8.376;2023-11-19T03:37:31;99823.66;;;12.68;100.00
19112;BME280;9688;51.906;8.376;2023-11-19T03:40:17;99820.94;;;12.69;100.00
19112;BME280;9688;51.906;8.376;2023-11-19T03:43:04;99835.81;;;12.72;100.00
19112;BME280;9688;51.906;8.376;2023-11-19T03:45:51;99823.22;;;12.76;100.00
19112;BME280;9688;51.906;8.376;2023-11-19T03:48:36;99825.69;;;12.79;100.00
19112;BME280;9688;51.906;8.376;2023-11-19T03:51:25;99822.91;;;12.80;100.00
19112;BME280;9688;51.906;8.376;2023-11-19T03:54:10;99840.63;;;12.80;100.00
19112;BME280;9688;51.906;8.376;2023-11-19T03:56:58;99844.25;;;12.79;100.00
19112;BME280;9688;51.906;8.376;2023-11-19T03:59:44;99840.56;;;12.81;100.00
19112;BME280;9688;51.906;8.376;2023-11-19T04:02:29;99841.41;;;12.82;100.00
19112;BME280;9688;51.906;8.376;2023-11-19T04:05:15;99852.69;;;12.85;100.00
19112;BME280;9688;51.906;8.376;2023-11-19T04:08:04;99859.34;;;12.92;100.00
19112;BME280;9688;51.906;8.376;2023-11-19T04:10:50;99849.28;;;12.98;100.00
19112;BME280;9688;51.906;8.376;2023-11-19T04:13:35;99847.22;;;13.03;100.00
19112;BME280;9688;51.906;8.376;2023-11-19T04:16:26;99845.03;;;13.09;100.00
19112;BME280;9688;51.906;8.376;2023-11-19T04:19:12;99831.50;;;13.14;100.00
19112;BME280;9688;51.906;8.376;2023-11-19T04:21:58;99839.91;;;13.21;100.00
19112;BME280;9688;51.906;8.376;2023-11-19T04:24:45;99831.00;;;13.22;100.00
19112;BME280;9688;51.906;8.376;2023-11-19T04:27:31;99833.47;;;13.25;100.00
19112;BME280;9688;51.906;8.376;2023-11-19T04:30:16;99826.56;;;13.22;100.00
19112;BME280;9688;51.906;8.376;2023-11-19T04:33:02;99826.84;;;13.17;100.00
19112;BME280;9688;51.906;8.376;2023-11-19T04:35:48;99835.00;;;13.14;100.00
19112;BME280;9688;51.906;8.376;2023-11-19T04:38:34;99824.38;;;13.14;100.00
19112;BME280;9688;51.906;8.376;2023-11-19T04:41:22;99820.88;;;13.14;100.00
19112;BME280;9688;51.906;8.376;2023-11-19T04:44:08;99824.47;;;13.13;100.00
19112;BME280;9688;51.906;8.376;2023-11-19T04:46:53;99818.50;;;13.09;100.00
19112;BME280;9688;51.906;8.376;2023-11-19T04:49:41;99816.13;;;13.05;100.00
19112;BME280;9688;51.906;8.376;2023-11-19T04:52:27;99823.50;;;13.00;100.00
19112;BME280;9688;51.906;8.376;2023-11-19T04:55:13;99813.09;;;12.97;100.00
19112;BME280;9688;51.906;8.376;2023-11-19T04:58:01;99804.47;;;12.93;100.00
19112;BME280;9688;51.906;8.376;2023-11-19T05:00:47;99818.88;;;12.89;100.00
19112;BME280;9688;51.906;8.376;2023-11-19T05:03:33;99817.44;;;12.83;100.00
19112;BME280;9688;51.906;8.376;2023-11-19T05:06:20;99820.25;;;12.80;100.00
19112;BME280;9688;51.906;8.376;2023-11-19T05:09:05;99811.84;;;12.73;100.00
19112;BME280;9688;51.906;8.376;2023-11-19T05:11:52;99821.69;;;12.71;100.00
19112;BME280;9688;51.906;8.376;2023-11-19T05:14:39;99822.72;;;12.69;100.00
19112;BME280;9688;51.906;8.376;2023-11-19T05:17:25;99829.94;;;12.67;100.00
19112;BME280;9688;51.906;8.376;2023-11-19T05:20:11;99832.41;;;12.70;100.00
19112;BME280;9688;51.906;8.376;2023-11-19T05:22:58;99841.84;;;12.74;100.00
19112;BME280;9688;51.906;8.376;2023-11-19T05:26:21;99838.16;;;12.77;100.00
19112;BME280;9688;51.906;8.376;2023-11-19T05:29:07;99852.00;;;12.82;100.00
19112;BME280;9688;51.906;8.376;2023-11-19T05:31:54;99852.88;;;12.82;100.00
19112;BME280;9688;51.906;8.376;2023-11-19T05:34:39;99858.94;;;12.84;100.00
19112;BME280;9688;51.906;8.376;2023-11-19T05:37:26;99853.63;;;12.84;100.00
19112;BME280;9688;51.906;8.376;2023-11-19T05:40:12;99852.59;;;12.87;100.00
19112;BME280;9688;51.906;8.376;2023-11-19T05:42:59;99850.91;;;12.86;100.00
19112;BME280;9688;51.906;8.376;2023-11-19T05:45:45;99856.88;;;12.89;100.00
19112;BME280;9688;51.906;8.376;2023-11-19T05:48:33;99851.25;;;12.94;100.00
19112;BME280;9688;51.906;8.376;2023-11-19T05:51:18;99857.44;;;12.94;100.00
19112;BME280;9688;51.906;8.376;2023-11-19T05:54:05;99857.63;;;12.91;100.00
19112;BME280;9688;51.906;8.376;2023-11-19T05:56:51;99871.94;;;12.89;100.00
19112;BME280;9688;51.906;8.376;2023-11-19T05:59:38;99870.91;;;12.91;100.00
19112;BME280;9688;51.906;8.376;2023-11-19T06:02:24;99875.13;;;12.94;100.00
19112;BME280;9688;51.906;8.376;2023-11-19T06:05:13;99853.00;;;12.95;100.00
19112;BME280;9688;51.906;8.376;2023-11-19T06:07:59;99865.66;;;12.90;100.00
19112;BME280;9688;51.906;8.376;2023-11-19T06:10:44;99865.00;;;12.86;100.00
19112;BME280;9688;51.906;8.376;2023-11-19T06:13:31;99873.22;;;12.82;100.00
19112;BME280;9688;51.906;8.376;2023-11-19T06:16:17;99866.22;;;12.81;100.00
19112;BME280;9688;51.906;8.376;2023-11-19T06:19:03;99871.44;;;12.82;100.00
19112;BME280;9688;51.906;8.376;2023-11-19T06:21:50;99875.81;;;12.83;100.00
19112;BME280;9688;51.906;8.376;2023-11-19T06:24:36;99867.75;;;12.85;100.00
19112;BME280;9688;51.906;8.376;2023-11-19T06:27:22;99875.81;;;12.83;100.00
19112;BME280;9688;51.906;8.376;2023-11-19T06:30:08;99881.13;;;12.83;100.00
19112;BME280;9688;51.906;8.376;2023-11-19T06:32:54;99883.00;;;12.81;100.00
19112;BME280;9688;51.906;8.376;2023-11-19T06:35:40;99876.84;;;12.81;100.00
19112;BME280;9688;51.906;8.376;2023-11-19T06:38:27;99868.97;;;12.79;100.00
19112;BME280;9688;51.906;8.376;2023-11-19T06:41:13;99874.38;;;12.78;100.00
19112;BME280;9688;51.906;8.376;2023-11-19T06:43:59;99892.84;;;12.79;100.00
19112;BME280;9688;51.906;8.376;2023-11-19T06:46:45;99900.53;;;12.84;100.00
19112;BME280;9688;51.906;8.376;2023-11-19T06:49:31;99897.03;;;12.83;100.00
19112;BME280;9688;51.906;8.376;2023-11-19T06:52:16;99900.41;;;12.85;100.00
19112;BME280;9688;51.906;8.376;2023-11-19T06:55:04;99904.81;;;12.86;100.00
19112;BME280;9688;51.906;8.376;2023-11-19T06:57:50;99905.47;;;12.90;100.00
19112;BME280;9688;51.906;8.376;2023-11-19T07:00:36;99906.41;;;12.89;100.00
19112;BME280;9688;51.906;8.376;2023-11-19T07:03:22;99901.84;;;12.91;100.00
19112;BME280;9688;51.906;8.376;2023-11-19T07:06:08;99892.19;;;12.90;100.00
19112;BME280;9688;51.906;8.376;2023-11-19T07:08:53;99900.34;;;12.87;100.00
19112;BME280;9688;51.906;8.376;2023-11-19T07:11:41;99909.25;;;12.86;100.00
19112;BME280;9688;51.906;8.376;2023-11-19T07:14:28;99910.94;;;12.87;100.00
19112;BME280;9688;51.906;8.376;2023-11-19T07:17:13;99913.34;;;12.91;100.00
19112;BME280;9688;51.906;8.376;2023-11-19T07:20:00;99910.59;;;12.93;100.00
19112;BME280;9688;51.906;8.376;2023-11-19T07:22:46;99917.50;;;12.95;100.00
19112;BME280;9688;51.906;8.376;2023-11-19T07:25:31;99915.63;;;12.98;100.00
19112;BME280;9688;51.906;8.376;2023-11-19T07:28:21;99911.94;;;13.00;100.00
19112;BME280;9688;51.906;8.376;2023-11-19T07:31:07;99910.03;;;13.02;100.00
19112;BME280;9688;51.906;8.376;2023-11-19T07:33:53;99908.25;;;13.03;100.00
19112;BME280;9688;51.906;8.376;2023-11-19T07:36:39;99913.56;;;13.03;100.00
19112;BME280;9688;51.906;8.376;2023-11-19T07:39:25;99917.06;;;13.03;100.00
19112;BME280;9688;51.906;8.376;2023-11-19T07:42:11;99927.56;;;13.05;100.00
19112;BME280;9688;51.906;8.376;2023-11-19T07:44:58;99924.91;;;13.05;100.00
19112;BME280;9688;51.906;8.376;2023-11-19T07:47:44;99921.31;;;13.06;100.00
19112;BME280;9688;51.906;8.376;2023-11-19T07:50:30;99929.28;;;13.06;100.00
19112;BME280;9688;51.906;8.376;2023-11-19T07:53:16;99935.34;;;13.08;100.00
19112;BME280;9688;51.906;8.376;2023-11-19T07:56:01;99934.22;;;13.12;100.00
19112;BME280;9688;51.906;8.376;2023-11-19T07:58:47;99936.69;;;13.15;100.00
19112;BME280;9688;51.906;8.376;2023-11-19T08:01:35;99942.84;;;13.15;100.00
19112;BME280;9688;51.906;8.376;2023-11-19T08:04:20;99934.88;;;13.15;100.00
19112;BME280;9688;51.906;8.376;2023-11-19T08:07:06;99938.38;;;13.16;100.00
19112;BME280;9688;51.906;8.376;2023-11-19T08:09:52;99932.91;;;13.19;100.00
19112;BME280;9688;51.906;8.376;2023-11-19T08:12:38;99943.16;;;13.25;100.00
19112;BME280;9688;51.906;8.376;2023-11-19T08:15:24;99965.09;;;13.29;100.00
19112;BME280;9688;51.906;8.376;2023-11-19T08:18:11;99961.41;;;13.31;100.00
19112;BME280;9688;51.906;8.376;2023-11-19T08:20:56;99955.03;;;13.34;100.00
19112;BME280;9688;51.906;8.376;2023-11-19T08:23:43;99954.47;;;13.29;100.00
19112;BME280;9688;51.906;8.376;2023-11-19T08:26:29;99968.50;;;13.31;100.00
19112;BME280;9688;51.906;8.376;2023-11-19T08:29:15;99964.81;;;13.33;100.00
19112;BME280;9688;51.906;8.376;2023-11-19T08:32:01;99965.75;;;13.32;100.00
19112;BME280;9688;51.906;8.376;2023-11-19T08:34:49;99974.47;;;13.34;100.00
19112;BME280;9688;51.906;8.376;2023-11-19T08:37:34;99970.53;;;13.42;100.00
19112;BME280;9688;51.906;8.376;2023-11-19T08:40:21;99966.72;;;13.46;100.00
19112;BME280;9688;51.906;8.376;2023-11-19T08:43:07;99963.09;;;13.47;100.00
19112;BME280;9688;51.906;8.376;2023-11-19T08:45:52;99970.03;;;13.49;100.00
19112;BME280;9688;51.906;8.376;2023-11-19T08:48:39;99965.75;;;13.47;100.00
19112;BME280;9688;51.906;8.376;2023-11-19T08:51:26;99970.22;;;13.46;100.00
19112;BME280;9688;51.906;8.376;2023-11-19T08:54:12;99971.06;;;13.47;100.00
19112;BME280;9688;51.906;8.376;2023-11-19T08:57:00;99978.28;;;13.45;100.00
19112;BME280;9688;51.906;8.376;2023-11-19T08:59:47;99978.47;;;13.42;100.00
19112;BME280;9688;51.906;8.376;2023-11-19T09:02:33;99981.88;;;13.44;100.00
19112;BME280;9688;51.906;8.376;2023-11-19T09:05:19;99979.16;;;13.45;100.00
19112;BME280;9688;51.906;8.376;2023-11-19T09:08:06;99980.66;;;13.49;100.00
19112;BME280;9688;51.906;8.376;2023-11-19T09:10:52;99980.66;;;13.49;100.00
19112;BME280;9688;51.906;8.376;2023-11-19T09:13:38;99984.06;;;13.51;100.00
19112;BME280;9688;51.906;8.376;2023-11-19T09:16:24;99989.31;;;13.53;100.00
19112;BME280;9688;51.906;8.376;2023-11-19T09:19:10;99988.34;;;13.54;100.00
19112;BME280;9688;51.906;8.376;2023-11-19T09:21:56;99991.66;;;13.57;100.00
19112;BME280;9688;51.906;8.376;2023-11-19T09:24:43;99983.34;;;13.64;100.00
19112;BME280;9688;51.906;8.376;2023-11-19T09:27:29;100001.81;;;13.65;100.00
19112;BME280;9688;51.906;8.376;2023-11-19T09:30:15;99995.28;;;13.71;100.00
19112;BME280;9688;51.906;8.376;2023-11-19T09:33:01;99999.47;;;13.75;100.00
19112;BME280;9688;51.906;8.376;2023-11-19T09:35:47;99994.81;;;13.78;100.00
19112;BME280;9688;51.906;8.376;2023-11-19T09:38:33;99997.34;;;13.80;100.00
19112;BME280;9688;51.906;8.376;2023-11-19T09:41:24;99985.41;;;13.87;100.00
19112;BME280;9688;51.906;8.376;2023-11-19T09:44:12;99981.63;;;13.91;100.00
19112;BME280;9688;51.906;8.376;2023-11-19T09:46:59;99988.06;;;13.87;100.00
19112;BME280;9688;51.906;8.376;2023-11-19T09:49:45;99993.66;;;13.82;100.00
19112;BME280;9688;51.906;8.376;2023-11-19T09:52:32;100000.41;;;13.74;100.00
19112;BME280;9688;51.906;8.376;2023-11-19T09:55:18;99991.59;;;13.73;100.00
19112;BME280;9688;51.906;8.376;2023-11-19T09:58:06;100000.59;;;13.71;100.00
19112;BME280;9688;51.906;8.376;2023-11-19T10:00:52;99988.06;;;13.73;100.00
19112;BME280;9688;51.906;8.376;2023-11-19T10:03:39;99986.28;;;13.73;100.00
19112;BME280;9688;51.906;8.376;2023-11-19T10:06:28;99996.03;;;13.73;100.00
19112;BME280;9688;51.906;8.376;2023-11-19T10:09:14;99989.78;;;13.74;100.00
19112;BME280;9688;51.906;8.376;2023-11-19T10:12:00;100002.78;;;13.78;100.00
19112;BME280;9688;51.906;8.376;2023-11-19T10:14:48;99997.19;;;13.83;100.00
19112;BME280;9688;51.906;8.376;2023-11-19T10:17:35;100002.19;;;13.88;100.00
19112;BME280;9688;51.906;8.376;2023-11-19T10:20:21;100003.75;;;13.92;100.00
19112;BME280;9688;51.906;8.376;2023-11-19T10:23:08;99991.88;;;13.97;100.00
19112;BME280;9688;51.906;8.376;2023-11-19T10:26:02;100000.50;;;14.01;100.00
19112;BME280;9688;51.906;8.376;2023-11-19T10:28:49;99995.25;;;13.99;100.00
19112;BME280;9688;51.906;8.376;2023-11-19T10:31:37;99989.59;;;14.05;100.00
19112;BME280;9688;51.906;8.376;2023-11-19T10:34:25;99990.03;;;14.12;100.00
19112;BME280;9688;51.906;8.376;2023-11-19T10:37:27;99988.78;;;14.18;100.00
19112;BME280;9688;51.906;8.376;2023-11-19T10:40:15;99990.97;;;14.25;100.00
19112;BME280;9688;51.906;8.376;2023-11-19T10:43:02;99992.38;;;14.31;100.00
19112;BME280;9688;51.906;8.376;2023-11-19T10:45:49;100003.66;;;14.35;100.00
19112;BME280;9688;51.906;8.376;2023-11-19T10:48:39;99993.16;;;14.33;100.00
19112;BME280;9688;51.906;8.376;2023-11-19T10:51:26;99993.16;;;14.33;100.00
19112;BME280;9688;51.906;8.376;2023-11-19T10:54:15;99982.31;;;14.36;100.00
19112;BME280;9688;51.906;8.376;2023-11-19T10:57:07;99988.91;;;14.43;100.00
19112;BME280;9688;51.906;8.376;2023-11-19T11:00:00;99982.56;;;14.46;100.00
19112;BME280;9688;51.906;8.376;2023-11-19T11:02:50;99969.25;;;14.46;100.00
19112;BME280;9688;51.906;8.376;2023-11-19T11:05:42;99982.00;;;14.41;100.00
19112;BME280;9688;51.906;8.376;2023-11-19T11:08:29;99974.91;;;14.41;100.00
19112;BME280;9688;51.906;8.376;2023-11-19T11:11:16;99978.69;;;14.37;100.00
19112;BME280;9688;51.906;8.376;2023-11-19T11:14:05;99962.84;;;14.36;100.00
19112;BME280;9688;51.906;8.376;2023-11-19T11:16:53;99960.28;;;14.34;100.00
19112;BME280;9688;51.906;8.376;2023-11-19T11:19:41;99958.66;;;14.32;100.00
19112;BME280;9688;51.906;8.376;2023-11-19T11:22:37;99965.03;;;14.29;100.00
19112;BME280;9688;51.906;8.376;2023-11-19T11:25:38;99962.38;;;14.29;100.00
19112;BME280;9688;51.906;8.376;2023-11-19T11:28:30;99959.72;;;14.29;100.00
19112;BME280;9688;51.906;8.376;2023-11-19T11:31:29;99968.00;;;14.24;100.00
19112;BME280;9688;51.906;8.376;2023-11-19T11:34:33;99961.25;;;14.19;100.00
19112;BME280;9688;51.906;8.376;2023-11-19T11:37:32;99960.41;;;14.18;100.00
19112;BME280;9688;51.906;8.376;2023-11-19T11:40:20;99960.19;;;14.21;100.00
19112;BME280;9688;51.906;8.376;2023-11-19T11:43:43;99954.53;;;14.13;100.00
19112;BME280;9688;51.906;8.376;2023-11-19T11:46:53;99957.28;;;14.12;100.00
19112;BME280;9688;51.906;8.376;2023-11-19T11:49:39;99959.09;;;14.11;100.00
19112;BME280;9688;51.906;8.376;2023-11-19T11:52:26;99960.03;;;14.10;100.00
19112;BME280;9688;51.906;8.376;2023-11-19T11:55:13;99954.00;;;14.08;100.00
19112;BME280;9688;51.906;8.376;2023-11-19T11:57:58;99953.66;;;14.13;100.00
19112;BME280;9688;51.906;8.376;2023-11-19T12:00:46;99952.81;;;14.12;100.00
19112;BME280;9688;51.906;8.376;2023-11-19T12:03:33;99949.22;;;14.13;100.00
19112;BME280;9688;51.906;8.376;2023-11-19T12:06:20;99953.94;;;14.22;100.00
19112;BME280;9688;51.906;8.376;2023-11-19T12:09:07;99950.03;;;14.28;100.00
19112;BME280;9688;51.906;8.376;2023-11-19T12:12:07;99941.88;;;14.31;100.00
19112;BME280;9688;51.906;8.376;2023-11-19T12:15:00;99939.22;;;14.31;100.00
19112;BME280;9688;51.906;8.376;2023-11-19T12:17:49;99937.31;;;14.33;100.00
19112;BME280;9688;51.906;8.376;2023-11-19T12:20:35;99936.25;;;14.36;100.00
19112;BME280;9688;51.906;8.376;2023-11-19T12:23:24;99928.94;;;14.39;100.00
19112;BME280;9688;51.906;8.376;2023-11-19T12:26:21;99920.72;;;14.57;100.00
19112;BME280;9688;51.906;8.376;2023-11-19T12:29:17;99931.94;;;14.75;100.00
19112;BME280;9688;51.906;8.376;2023-11-19T12:32:03;99924.66;;;14.91;100.00
19112;BME280;9688;51.906;8.376;2023-11-19T12:34:49;99921.88;;;14.92;100.00
19112;BME280;9688;51.906;8.376;2023-11-19T12:37:39;99911.84;;;14.96;100.00
19112;BME280;9688;51.906;8.376;2023-11-19T12:40:25;99926.97;;;14.95;100.00
19112;BME280;9688;51.906;8.376;2023-11-19T12:43:21;99918.44;;;14.90;100.00
19112;BME280;9688;51.906;8.376;2023-11-19T12:46:19;99908.84;;;14.88;100.00
19112;BME280;9688;51.906;8.376;2023-11-19T12:49:05;99911.66;;;14.86;100.00
19112;BME280;9688;51.906;8.376;2023-11-19T12:51:51;99907.47;;;14.82;100.00
19112;BME280;9688;51.906;8.376;2023-11-19T12:54:37;99898.84;;;14.79;100.00
19112;BME280;9688;51.906;8.376;2023-11-19T12:57:36;99903.53;;;14.75;100.00
19112;BME280;9688;51.906;8.376;2023-11-19T13:00:24;99905.72;;;14.68;100.00
19112;BME280;9688;51.906;8.376;2023-11-19T13:03:12;99894.66;;;14.62;100.00
19112;BME280;9688;51.906;8.376;2023-11-19T13:06:05;99907.41;;;14.57;100.00
19112;BME280;9688;51.906;8.376;2023-11-19T13:08:52;99906.66;;;14.55;100.00
19112;BME280;9688;51.906;8.376;2023-11-19T13:11:39;99903.16;;;14.54;100.00
19112;BME280;9688;51.906;8.376;2023-11-19T13:14:36;99911.41;;;14.49;100.00
19112;BME280;9688;51.906;8.376;2023-11-19T13:17:21;99898.00;;;14.51;100.00
19112;BME280;9688;51.906;8.376;2023-11-19T13:20:10;99890.81;;;14.53;100.00
19112;BME280;9688;51.906;8.376;2023-11-19T13:23:00;99887.75;;;14.59;100.00
19112;BME280;9688;51.906;8.376;2023-11-19T13:25:45;99892.97;;;14.61;100.00
19112;BME280;9688;51.906;8.376;2023-11-19T13:28:31;99885.19;;;14.58;100.00
19112;BME280;9688;51.906;8.376;2023-11-19T13:31:17;99883.47;;;14.57;100.00
19112;BME280;9688;51.906;8.376;2023-11-19T13:34:03;99881.66;;;14.57;100.00
19112;BME280;9688;51.906;8.376;2023-11-19T13:36:53;99880.22;;;14.51;100.00
19112;BME280;9688;51.906;8.376;2023-11-19T13:39:41;99876.59;;;14.40;100.00
19112;BME280;9688;51.906;8.376;2023-11-19T13:42:27;99871.41;;;14.38;100.00
19112;BME280;9688;51.906;8.376;2023-11-19T13:45:14;99878.81;;;14.33;100.00
19112;BME280;9688;51.906;8.376;2023-11-19T13:48:02;99861.25;;;14.31;100.00
19112;BME280;9688;51.906;8.376;2023-11-19T13:50:48;99862.31;;;14.28;100.00
19112;BME280;9688;51.906;8.376;2023-11-19T13:53:36;99863.56;;;14.22;100.00
19112;BME280;9688;51.906;8.376;2023-11-19T13:56:22;99852.38;;;14.17;100.00
19112;BME280;9688;51.906;8.376;2023-11-19T13:59:07;99864.16;;;14.13;100.00
19112;BME280;9688;51.906;8.376;2023-11-19T14:01:54;99854.59;;;14.11;100.00
19112;BME280;9688;51.906;8.376;2023-11-19T14:04:40;99853.06;;;14.06;100.00
19112;BME280;9688;51.906;8.376;2023-11-19T14:07:27;99864.75;;;14.04;100.00
19112;BME280;9688;51.906;8.376;2023-11-19T14:10:14;99854.25;;;14.02;100.00
19112;BME280;9688;51.906;8.376;2023-11-19T14:13:00;99849.97;;;14.00;100.00
19112;BME280;9688;51.906;8.376;2023-11-19T14:15:46;99868.03;;;13.95;100.00
19112;BME280;9688;51.906;8.376;2023-11-19T14:18:33;99863.97;;;13.89;100.00
19112;BME280;9688;51.906;8.376;2023-11-19T14:21:19;99859.88;;;13.83;100.00
19112;BME280;9688;51.906;8.376;2023-11-19T14:24:06;99871.38;;;13.84;100.00
19112;BME280;9688;51.906;8.376;2023-11-19T14:26:53;99878.56;;;13.82;100.00
19112;BME280;9688;51.906;8.376;2023-11-19T14:29:43;99874.22;;;13.81;100.00
19112;BME280;9688;51.906;8.376;2023-11-19T14:32:29;99860.94;;;13.81;100.00
19112;BME280;9688;51.906;8.376;2023-11-19T14:35:15;99868.72;;;13.84;100.00
19112;BME280;9688;51.906;8.376;2023-11-19T14:38:01;99865.09;;;13.85;100.00
19112;BME280;9688;51.906;8.376;2023-11-19T14:40:51;99875.50;;;13.88;100.00
19112;BME280;9688;51.906;8.376;2023-11-19T14:43:42;99873.53;;;13.92;100.00
19112;BME280;9688;51.906;8.376;2023-11-19T14:46:28;99875.69;;;13.99;100.00